Latest Weather Observations for Hobart

IDT60901

Issued at 1:01 pm EST Tuesday 21 April 2015 (issued every 10 minutes, with the page automatically refreshed every 10 minutes)

About weather observations | Map of Hobart area stations | Latest observations for Hobart area | Other Formats
Station Details ID: 094029 Name: HOBART (ELLERSLIE ROAD) Lat: -42.89 Lon: 147.33 Height: 50.5 m
Data from the previous 72 hours. | See also: Recent months at Hobart
Date/Time
EST
Tmp

°C
App
Tmp
°C
Dew
Point
°C
Rel
Hum
%
Delta-T

°C
Wind Press
QNH
hPa
Press
MSL
hPa
Rain
since
9 am
mm
Dir
 
Spd
km/h
Gust
km/h
Spd
kts
Gust
kts
21/01:00pm 17.2 14.4 6.9 50 5.1 NE 11 15 6 8 1031.9 1031.9 0.0
21/12:30pm 17.1 14.3 7.0 51 5.0 NNE 11 15 6 8 1032.3 1032.3 0.0
21/12:00pm 16.9 14.9 7.0 52 4.9 NW 7 13 4 7 1032.7 1032.7 0.0
21/11:30am 16.7 14.3 7.2 53 4.7 NNW 9 13 5 7 1033.1 1033.1 0.0
21/11:00am 16.4 13.2 6.8 53 4.7 NNW 13 19 7 10 1033.3 1033.3 0.0
21/10:30am 15.3 12.0 6.6 56 4.2 N 13 19 7 10 1033.5 1033.5 0.0
21/10:00am 14.8 12.9 6.5 57 4.0 NNE 6 9 3 5 1033.6 1033.6 0.0
21/09:30am 14.9 12.9 6.9 58 3.9 N 7 11 4 6 1033.8 1033.8 0.0
21/09:00am 12.5 11.7 6.6 67 2.8 CALM 0 0 0 0 1034.0 1034.0 0.0
21/08:30am 11.6 10.1 7.0 73 2.2 WNW 4 7 2 4 1034.1 1034.1 0.0
21/08:00am 10.7 8.5 6.4 75 2.0 WSW 7 9 4 5 1033.9 1033.9 0.0
21/07:30am 10.3 8.1 6.2 76 1.9 NW 7 11 4 6 1033.7 1033.7 0.0
21/07:00am 9.6 7.3 5.9 78 1.7 WNW 7 9 4 5 1033.5 1033.5 0.0
21/06:30am 9.7 7.5 6.2 79 1.6 WNW 7 7 4 4 1033.2 1033.2 0.0
21/06:00am 9.8 7.6 6.1 78 1.7 W 7 9 4 5 1033.2 1033.2 0.0
21/05:30am 9.9 8.6 6.0 77 1.8 WNW 2 9 1 5 1033.3 1033.3 0.0
21/05:00am 10.0 7.3 5.6 74 2.0 W 9 11 5 6 1033.2 1033.2 0.0
21/04:30am 9.8 7.5 5.6 75 1.9 W 7 9 4 5 1033.1 1033.1 0.0
21/04:00am 9.6 7.3 5.6 76 1.8 WSW 7 9 4 5 1033.1 1033.1 0.0
21/03:30am 9.5 7.2 5.5 76 1.8 WNW 7 9 4 5 1033.2 1033.2 0.0
21/03:00am 9.1 6.8 5.5 78 1.6 W 7 11 4 6 1033.1 1033.1 0.0
21/02:30am 9.1 6.7 5.3 77 1.7 W 7 9 4 5 1033.3 1033.3 0.0
21/02:00am 8.9 6.5 5.3 78 1.6 NW 7 11 4 6 1033.5 1033.5 0.0
21/01:30am 9.1 6.7 5.3 77 1.7 W 7 9 4 5 1033.6 1033.6 0.0
21/01:00am 9.1 6.7 5.1 76 1.8 WNW 7 13 4 7 1033.6 1033.6 0.0
21/12:30am 9.0 6.6 5.4 78 1.6 WNW 7 11 4 6 1033.8 1033.8 0.0
21/12:00am 9.7 6.1 5.2 73 2.0 NNW 13 20 7 11 1033.8 1033.8 0.0
 
Date/Time
EST
Tmp

°C
App
Tmp
°C
Dew
Point
°C
Rel
Hum
%
Delta-T

°C
Wind Press
QNH
hPa
Press
MSL
hPa
Rain
since
9 am
mm
Dir
 
Spd
km/h
Gust
km/h
Spd
kts
Gust
kts
20/11:30pm 9.4 6.7 5.4 76 1.8 NW 9 13 5 7 1033.9 1033.9 0.0
20/11:00pm 9.6 7.7 5.1 73 2.0 N 4 9 2 5 1034.1 1034.1 0.0
20/10:30pm 10.0 6.8 5.1 71 2.2 NNW 11 15 6 8 1034.1 1034.1 0.0
20/10:00pm 9.7 7.2 5.0 72 2.1 W 7 13 4 7 1034.4 1034.4 0.0
20/09:30pm 10.3 8.0 4.9 69 2.4 WNW 6 7 3 4 1034.4 1034.4 0.0
20/09:00pm 10.7 8.2 4.7 66 2.7 WNW 7 11 4 6 1034.4 1034.4 0.0
20/08:30pm 10.4 8.0 5.1 69 2.4 W 7 11 4 6 1034.3 1034.3 0.0
20/08:00pm 10.8 8.5 5.0 67 2.6 W 6 9 3 5 1034.3 1034.3 0.0
20/07:30pm 11.2 9.6 4.7 64 2.9 W 2 7 1 4 1034.2 1034.2 0.0
20/07:00pm 11.4 9.2 5.3 66 2.8 WSW 6 7 3 4 1034.1 1034.1 0.0
20/06:30pm 12.0 9.5 4.7 61 3.3 WSW 7 11 4 6 1033.9 1033.9 0.0
20/06:00pm 12.6 9.7 4.9 59 3.5 W 9 13 5 7 1033.7 1033.7 0.0
20/05:30pm 13.8 11.2 4.1 52 4.4 ESE 7 9 4 5 1033.5 1033.5 0.0
20/05:00pm 13.9 10.8 3.7 50 4.6 SE 9 13 5 7 1033.5 1033.5 0.0
20/04:30pm 14.4 11.1 2.6 45 5.3 E 9 11 5 6 1033.4 1033.4 0.0
20/04:00pm 14.6 11.8 3.2 46 5.1 NNE 7 11 4 6 1033.4 1033.4 0.0
20/03:30pm 15.5 12.1 2.1 40 6.0 NNW 9 15 5 8 1033.5 1033.5 0.0
20/03:00pm 14.7 10.7 3.1 45 5.2 NNE 13 19 7 10 1033.6 1033.6 0.0
20/02:30pm 14.9 10.1 2.4 43 5.6 N 17 22 9 12 1033.8 1033.8 0.0
20/02:00pm 15.1 10.6 2.4 42 5.6 N 15 22 8 12 1033.8 1033.8 0.0
20/01:30pm 15.2 11.5 2.6 42 5.6 N 11 19 6 10 1034.1 1034.1 0.0
20/01:00pm 15.7 12.4 2.7 41 5.8 N 9 17 5 9 1034.3 1034.3 0.0
20/12:30pm 15.3 12.4 2.7 42 5.7 NW 7 17 4 9 1034.9 1034.9 0.0
20/12:00pm 13.5 9.4 2.5 47 4.8 NNE 13 20 7 11 1035.2 1035.2 0.0
20/11:30am 14.1 10.1 2.8 46 5.0 N 13 20 7 11 1035.7 1035.7 0.0
20/11:00am 12.7 7.9 2.5 50 4.4 NNW 17 24 9 13 1035.9 1035.9 0.0
20/10:30am 11.9 7.4 2.3 52 4.2 NNW 15 22 8 12 1036.1 1036.1 0.0
20/10:00am 10.9 5.7 2.4 55 3.6 NNW 19 24 10 13 1036.0 1036.0 0.0
20/09:30am 9.5 4.6 2.0 59 3.1 NNW 17 26 9 14 1036.4 1036.4 0.0
20/09:00am 8.4 3.5 2.1 64 2.6 NNW 17 24 9 13 1036.5 1036.5 0.0
20/08:30am 7.1 3.7 1.9 69 2.1 NW 9 22 5 12 1036.3 1036.3 0.0
20/08:00am 6.1 2.3 1.8 74 1.7 N 11 19 6 10 1036.1 1036.1 0.0
20/07:30am 4.3 1.2 1.5 82 1.1 NW 7 9 4 5 1035.9 1035.9 0.0
20/07:00am 3.7 0.6 1.1 83 1.0 W 7 9 4 5 1035.6 1035.6 0.0
20/06:30am 3.7 0.2 1.1 83 1.0 NW 9 13 5 7 1035.4 1035.4 0.0
20/06:00am 3.7 0.7 1.1 83 1.0 NW 6 11 3 6 1035.3 1035.3 0.0
20/05:30am 3.9 0.4 1.3 83 1.0 WNW 9 13 5 7 1035.0 1035.0 0.0
20/05:00am 3.7 0.6 1.1 83 1.0 W 7 11 4 6 1034.9 1034.9 0.0
20/04:30am 3.9 0.7 1.0 81 1.1 W 7 11 4 6 1034.7 1034.7 0.0
20/04:00am 4.0 1.0 0.8 80 1.2 WNW 6 9 3 5 1034.6 1034.6 0.0
20/03:30am 4.2 1.2 0.8 78 1.3 W 6 9 3 5 1034.6 1034.6 0.0
20/03:00am 4.3 1.1 0.9 78 1.3 WSW 7 13 4 7 1034.6 1034.6 0.0
20/02:30am 4.7 2.1 0.8 76 1.5 W 4 9 2 5 1034.7 1034.7 0.0
20/02:00am 4.6 0.3 0.7 76 1.5 WSW 13 17 7 9 1034.8 1034.8 0.0
20/01:30am 4.9 1.7 0.7 74 1.6 WSW 7 11 4 6 1034.6 1034.6 0.0
20/01:00am 5.0 2.0 0.6 73 1.7 SW 6 17 3 9 1034.5 1034.5 0.0
20/12:30am 5.1 2.1 0.7 73 1.7 W 6 9 3 5 1034.4 1034.4 0.0
20/12:00am 5.3 1.7 0.6 72 1.8 WSW 9 13 5 7 1034.3 1034.3 0.0
 
Date/Time
EST
Tmp

°C
App
Tmp
°C
Dew
Point
°C
Rel
Hum
%
Delta-T

°C
Wind Press
QNH
hPa
Press
MSL
hPa
Rain
since
9 am
mm
Dir
 
Spd
km/h
Gust
km/h
Spd
kts
Gust
kts
19/11:30pm 5.6 3.0 0.7 71 1.9 N 4 9 2 5 1034.1 1034.1 0.0
19/11:00pm 6.0 3.7 0.6 68 2.1 W 2 9 1 5 1034.1 1034.1 0.0
19/10:30pm 6.4 2.8 0.5 66 2.3 NW 9 13 5 7 1034.0 1034.0 0.0
19/10:00pm 6.6 3.4 0.7 66 2.3 SW 7 17 4 9 1033.7 1033.7 0.0
19/09:30pm 7.8 4.2 0.4 59 2.9 NNW 9 17 5 9 1033.7 1033.7 0.0
19/09:00pm 8.0 4.3 0.1 57 3.1 WSW 9 20 5 11 1033.6 1033.6 0.0
19/08:30pm 7.2 3.6 0.3 61 2.7 W 9 17 5 9 1033.0 1033.0 0.0
19/08:00pm 8.1 5.0 0.2 57 3.1 NW 6 13 3 7 1032.3 1032.3 0.0
19/07:30pm 8.2 6.3 0.3 57 3.1 CALM 0 0 0 0 1032.0 1032.0 0.0
19/07:00pm 8.0 4.0 0.7 60 2.9 SW 11 15 6 8 1031.6 1031.6 0.0
19/06:30pm 8.9 6.5 0.0 53 3.5 W 2 9 1 5 1031.0 1031.0 0.0
19/06:00pm 9.7 5.2 -0.5 49 4.0 SSW 13 20 7 11 1030.3 1030.4 0.0
19/05:30pm 10.0 5.0 -1.0 46 4.3 SSW 15 28 8 15 1029.8 1029.9 0.0
19/05:00pm 10.7 4.8 -2.1 41 4.9 WSW 19 32 10 17 1029.4 1029.5 0.0
19/04:30pm 11.2 5.3 -2.0 39 5.1 SW 19 32 10 17 1028.8 1028.9 0.0
19/04:00pm 12.0 6.1 -2.2 37 5.5 WSW 19 30 10 16 1028.5 1028.6 0.0
19/03:30pm 12.1 6.5 -3.2 34 5.9 SW 17 32 9 17 1028.1 1028.2 0.0
19/03:00pm 12.3 6.0 -4.0 32 6.1 SW 20 28 11 15 1027.8 1027.9 0.0
19/02:30pm 13.2 7.7 -5.4 27 6.9 WSW 15 33 8 18 1027.4 1027.5 0.0
19/02:00pm 12.8 6.8 -6.2 26 6.8 S 17 24 9 13 1027.2 1027.2 0.0
19/01:30pm 13.1 6.0 -4.2 30 6.5 SW 24 39 13 21 1026.9 1026.9 0.0
19/01:00pm 12.6 6.4 -3.5 32 6.1 SSW 20 39 11 21 1026.6 1026.6 0.0
19/12:30pm 11.9 5.3 -3.1 35 5.7 SSW 22 43 12 23 1026.3 1026.3 0.0
19/12:00pm 11.4 5.6 -1.7 40 5.1 S 19 39 10 21 1026.5 1026.5 0.0
19/11:30am 10.8 4.5 -1.2 43 4.7 SSW 22 35 12 19 1026.3 1026.3 0.0
19/11:00am 11.2 5.2 -1.2 42 4.9 SW 20 32 11 17 1025.7 1025.7 0.0
19/10:30am 10.4 2.6 -0.7 46 4.4 SW 30 43 16 23 1025.2 1025.2 0.0
19/10:00am 10.5 2.1 -0.9 45 4.5 SW 33 54 18 29 1024.5 1024.5 0.0
19/09:47am 10.3 2.1 -1.2 44 4.5 SW 32 50 17 27 1024.3 1024.3 0.0
19/09:30am 10.3 4.5 -1.6 43 4.6 SW 19 39 10 21 1024.3 1024.3 0.0
19/09:00am 9.2 2.9 -0.8 49 3.9 SW 22 37 12 20 1023.9 1023.9 0.2
19/08:30am 9.1 4.2 -0.6 50 3.8 SW 15 28 8 15 1023.4 1023.4 0.2
19/08:00am 9.1 4.0 -2.0 45 4.2 WSW 15 26 8 14 1022.4 1022.4 0.2
19/07:30am 8.4 4.6 -0.6 53 3.5 W 9 22 5 12 1021.5 1021.5 0.2
19/07:00am 8.1 4.5 0.3 58 3.1 SSW 9 20 5 11 1020.9 1020.9 0.2
19/06:30am 8.4 4.7 0.1 56 3.3 WSW 9 19 5 10 1020.0 1020.0 0.2
19/06:00am 8.7 4.3 0.5 56 3.3 SW 13 24 7 13 1019.2 1019.2 0.2
19/05:30am 8.4 3.4 1.3 61 2.9 SSW 17 28 9 15 1018.1 1018.1 0.2
19/05:00am 8.3 5.3 2.0 64 2.6 ESE 7 19 4 10 1017.5 1017.5 0.2
19/04:30am 8.0 5.5 3.8 75 1.8 S 6 13 3 7 1016.7 1016.7 0.2
19/04:00am 8.5 3.7 4.4 75 1.8 S 19 28 10 15 1016.1 1016.1 0.2
19/03:30am 8.6 4.9 4.5 75 1.8 S 13 22 7 12 1015.2 1015.2 0.0
19/03:00am 8.6 5.3 4.5 75 1.8 SW 11 28 6 15 1014.4 1014.4 0.0
19/02:30am 8.9 4.6 5.4 79 1.6 SSW 17 26 9 14 1013.9 1013.9 0.0
19/02:00am 9.7 6.9 3.2 64 2.8 S 7 9 4 5 1013.3 1013.3 0.0
19/01:30am 10.2 7.9 2.8 60 3.2 N 4 9 2 5 1012.4 1012.4 0.0
19/01:00am 9.8 7.2 3.4 64 2.8 SW 6 7 3 4 1012.4 1012.4 0.0
19/12:30am 10.3 7.1 3.2 61 3.1 SW 9 20 5 11 1011.8 1011.8 0.0
19/12:00am 10.3 6.8 3.7 63 2.9 NW 11 19 6 10 1011.1 1011.1 0.0
 
Date/Time
EST
Tmp

°C
App
Tmp
°C
Dew
Point
°C
Rel
Hum
%
Delta-T

°C
Wind Press
QNH
hPa
Press
MSL
hPa
Rain
since
9 am
mm
Dir
 
Spd
km/h
Gust
km/h
Spd
kts
Gust
kts
18/11:30pm 10.7 6.1 3.7 62 3.1 NW 17 26 9 14 1010.7 1010.6 0.0
18/11:00pm 10.9 7.4 3.7 61 3.2 NNW 11 17 6 9 1010.1 1010.1 0.0
18/10:30pm 11.2 6.6 3.5 59 3.4 NNW 17 22 9 12 1009.9 1009.9 0.0
18/10:00pm 12.1 8.8 2.2 50 4.3 NNE 9 15 5 8 1009.6 1009.6 0.0
18/09:30pm 11.6 9.1 3.5 57 3.6 NW 6 15 3 8 1008.8 1008.8 0.0
18/09:00pm 12.1 7.8 3.1 54 4.0 WNW 15 20 8 11 1008.6 1008.6 0.0
18/08:30pm 12.1 8.5 3.1 54 4.0 NW 11 17 6 9 1008.0 1008.0 0.0
18/08:00pm 12.3 7.1 2.5 51 4.3 NW 19 26 10 14 1007.6 1007.6 0.0
18/07:30pm 12.6 6.0 2.0 48 4.6 NNW 26 39 14 21 1006.8 1006.8 0.0
18/07:00pm 12.9 6.2 1.5 46 4.9 NNW 26 39 14 21 1006.1 1006.1 0.0
18/06:30pm 13.2 5.2 1.7 45 5.0 NNW 33 54 18 29 1005.4 1005.4 0.0
18/06:23pm 13.4 6.4 2.0 46 5.0 N 28 46 15 25 1005.5 1005.5 0.0
18/06:00pm 13.3 7.6 3.0 49 4.6 N 22 39 12 21 1005.4 1005.4 0.0
18/05:30pm 14.0 8.6 2.5 46 5.1 N 20 39 11 21 1004.7 1004.7 0.0
18/05:00pm 13.4 10.7 5.8 60 3.6 S 9 15 5 8 1004.5 1004.5 0.0
18/04:30pm 12.7 7.4 6.7 67 2.9 SW 24 37 13 20 1004.2 1004.2 0.0
18/04:28pm 12.7 7.0 6.7 67 2.9 SW 26 37 14 20 1004.1 1004.1 0.0
18/04:00pm 13.4 5.8 7.5 67 2.9 WSW 37 56 20 30 1002.8 1002.8 0.0
18/03:30pm 14.8 9.0 8.1 64 3.4 SW 28 52 15 28 1002.0 1002.0 0.0
18/03:26pm 15.2 9.5 8.3 63 3.5 SW 28 52 15 28 1002.0 1002.0 0.0
18/03:00pm 19.2 13.5 6.5 43 6.4 NW 26 48 14 26 1001.7 1001.7 0.0
18/02:37pm 19.9 13.6 5.9 40 7.0 NW 28 54 15 29 1001.3 1001.3 0.0
18/02:30pm 20.4 14.3 6.6 40 7.0 NW 28 44 15 24 1001.2 1001.2 0.0
18/02:00pm 19.4 12.7 5.7 40 6.8 NW 30 52 16 28 1001.2 1001.2 0.0
18/01:36pm 19.7 13.2 4.7 37 7.3 NW 28 50 15 27 1001.0 1001.0 0.0
18/01:30pm 19.8 14.9 5.2 38 7.2 NW 20 33 11 18 1001.4 1001.4 0.0
18/01:10pm 19.6 12.3 4.6 37 7.3 NW 32 50 17 27 1001.3 1001.3 0.0

Latest Capital City Observations: Canberra | Sydney | Melbourne | Brisbane | Adelaide | Perth | Hobart | Darwin

Other Formats:

Comma delimited format used in spreadsheet applications
http://www.bom.gov.au/fwo/IDT60901/IDT60901.94970.axf

JavaScript Object Notation format (JSON) in row-major order
http://www.bom.gov.au/fwo/IDT60901/IDT60901.94970.json